createdAt,value
2023-01-23T00:02:04.969Z,8.94
2023-01-23T00:04:31.382Z,8.95
2023-01-23T00:06:57.619Z,8.95
2023-01-23T00:09:23.874Z,8.93
2023-01-23T00:11:50.439Z,8.94
2023-01-23T00:14:17.819Z,8.93
2023-01-23T00:16:44.335Z,8.92
2023-01-23T00:19:10.859Z,8.91
2023-01-23T00:21:37.140Z,8.90
2023-01-23T00:24:03.769Z,8.89
2023-01-23T00:26:32.707Z,8.88
2023-01-23T00:28:59.441Z,8.87
2023-01-23T00:31:27.451Z,8.87
2023-01-23T00:33:55.218Z,8.87
2023-01-23T00:36:21.478Z,8.86
2023-01-23T00:38:47.688Z,8.85
2023-01-23T00:41:14.124Z,8.83
2023-01-23T00:43:40.608Z,8.83
2023-01-23T00:46:06.929Z,8.81
2023-01-23T00:48:33.289Z,8.81
2023-01-23T00:50:59.558Z,8.80
2023-01-23T00:53:25.837Z,8.79
2023-01-23T00:55:53.443Z,8.79
2023-01-23T00:58:19.923Z,8.80
2023-01-23T01:00:46.377Z,8.80
2023-01-23T01:03:12.944Z,8.79
2023-01-23T01:05:39.503Z,8.78
2023-01-23T01:08:06.078Z,8.80
2023-01-23T01:10:32.966Z,8.82
2023-01-23T01:13:00.247Z,8.83
2023-01-23T01:15:27.048Z,8.84
2023-01-23T01:17:54.091Z,8.84
2023-01-23T01:20:25.773Z,8.86
2023-01-23T01:22:56.228Z,8.87
2023-01-23T01:25:22.674Z,8.86
2023-01-23T01:27:49.264Z,8.85
2023-01-23T01:30:17.128Z,8.86
2023-01-23T01:32:43.997Z,8.87
2023-01-23T01:35:10.880Z,8.86
2023-01-23T01:37:38.167Z,8.86
2023-01-23T01:40:06.028Z,8.87
2023-01-23T01:42:38.307Z,8.86
2023-01-23T01:45:04.763Z,8.85
2023-01-23T01:47:31.049Z,8.84
2023-01-23T01:49:59.584Z,8.82
2023-01-23T01:52:26.397Z,8.82
2023-01-23T01:54:55.273Z,8.80
2023-01-23T01:57:34.549Z,8.78
2023-01-23T02:00:11.999Z,8.75
2023-01-23T02:03:04.831Z,8.73
2023-01-23T02:05:34.431Z,8.71
2023-01-23T02:08:10.980Z,8.68
2023-01-23T02:10:37.361Z,8.68
2023-01-23T02:13:19.033Z,8.66
2023-01-23T02:15:45.484Z,8.65
2023-01-23T02:18:11.887Z,8.65
2023-01-23T02:20:38.696Z,8.65
2023-01-23T02:23:10.669Z,8.66
2023-01-23T02:25:42.862Z,8.67
2023-01-23T02:28:10.823Z,8.67
2023-01-23T02:30:37.807Z,8.66
2023-01-23T02:33:08.317Z,8.67
2023-01-23T02:35:35.649Z,8.65
2023-01-23T02:38:03.376Z,8.65
2023-01-23T02:40:38.126Z,8.64
2023-01-23T02:43:05.465Z,8.65
2023-01-23T02:45:32.614Z,8.65
2023-01-23T02:48:01.361Z,8.65
2023-01-23T02:50:28.176Z,8.65
2023-01-23T02:52:54.794Z,8.65
2023-01-23T02:55:21.822Z,8.66
2023-01-23T02:57:48.071Z,8.67
2023-01-23T03:00:20.134Z,8.68
2023-01-23T03:02:50.784Z,8.69
2023-01-23T03:05:17.998Z,8.68
2023-01-23T03:07:44.481Z,8.69
2023-01-23T03:10:11.706Z,8.70
2023-01-23T03:12:42.570Z,8.70
2023-01-23T03:15:09.385Z,8.68
2023-01-23T03:17:36.490Z,8.69
2023-01-23T03:20:04.218Z,8.69
2023-01-23T03:22:30.552Z,8.70
2023-01-23T03:24:57.793Z,8.70
2023-01-23T03:27:24.339Z,8.71
2023-01-23T03:30:09.532Z,8.71
2023-01-23T03:32:37.385Z,8.71
2023-01-23T03:35:03.830Z,8.73
2023-01-23T03:37:30.254Z,8.74
2023-01-23T03:40:15.266Z,8.74
2023-01-23T03:42:41.590Z,8.75
2023-01-23T03:45:07.933Z,8.75
2023-01-23T03:47:34.261Z,8.77
2023-01-23T03:50:00.560Z,8.80
2023-01-23T03:52:26.899Z,8.80
2023-01-23T03:54:53.108Z,8.80
2023-01-23T03:57:19.567Z,8.81
2023-01-23T03:59:45.835Z,8.81
2023-01-23T04:02:12.139Z,8.81
2023-01-23T04:04:38.412Z,8.80
2023-01-23T04:07:05.504Z,8.80
2023-01-23T04:09:32.013Z,8.81
2023-01-23T04:11:58.931Z,8.81
2023-01-23T04:14:26.442Z,8.83
2023-01-23T04:16:53.881Z,8.83
2023-01-23T04:19:20.782Z,8.84
2023-01-23T04:21:48.553Z,8.83
2023-01-23T04:24:18.075Z,8.85
2023-01-23T04:26:44.997Z,8.85
2023-01-23T04:29:11.381Z,8.84
2023-01-23T04:31:37.913Z,8.85
2023-01-23T04:34:04.297Z,8.83
2023-01-23T04:36:30.540Z,8.84
2023-01-23T04:38:56.809Z,8.83
2023-01-23T04:41:24.663Z,8.83
2023-01-23T04:43:50.935Z,8.84
2023-01-23T04:46:17.305Z,8.85
2023-01-23T04:48:43.594Z,8.86
2023-01-23T04:51:09.877Z,8.88
2023-01-23T04:53:36.171Z,8.88
2023-01-23T04:56:02.840Z,8.89
2023-01-23T04:58:29.097Z,8.89
2023-01-23T05:01:00.848Z,8.89
2023-01-23T05:03:27.211Z,8.90
2023-01-23T05:05:53.468Z,8.91
2023-01-23T05:08:19.727Z,8.91
2023-01-23T05:10:46.029Z,8.91
2023-01-23T05:13:12.272Z,8.92
2023-01-23T05:15:38.590Z,8.91
2023-01-23T05:18:05.092Z,8.93
2023-01-23T05:20:31.515Z,8.94
2023-01-23T05:22:58.673Z,8.94
2023-01-23T05:25:27.381Z,8.95
2023-01-23T05:27:53.715Z,8.94
2023-01-23T05:30:21.308Z,8.95
2023-01-23T05:32:47.830Z,8.94
2023-01-23T05:35:14.543Z,8.94
2023-01-23T05:37:41.347Z,8.94
2023-01-23T05:40:09.418Z,8.91
2023-01-23T05:42:35.855Z,8.91
2023-01-23T05:45:02.139Z,8.92
2023-01-23T05:47:28.473Z,8.93
2023-01-23T05:49:54.925Z,8.94
2023-01-23T05:52:22.038Z,8.95
2023-01-23T05:54:48.508Z,8.95
2023-01-23T05:57:14.971Z,8.96
2023-01-23T05:59:41.267Z,8.98
2023-01-23T06:02:07.715Z,8.99
2023-01-23T06:04:34.096Z,9.00
2023-01-23T06:07:00.565Z,9.01
2023-01-23T06:09:26.823Z,9.00
2023-01-23T06:11:53.129Z,9.00
2023-01-23T06:14:19.396Z,8.99
2023-01-23T06:16:45.681Z,8.99
2023-01-23T06:19:12.079Z,8.99
2023-01-23T06:21:38.425Z,9.00
2023-01-23T06:24:04.806Z,9.00
2023-01-23T06:26:31.071Z,8.99
2023-01-23T06:28:57.299Z,8.98
2023-01-23T06:31:23.876Z,8.97
2023-01-23T06:33:51.277Z,8.96
2023-01-23T06:36:17.820Z,8.93
2023-01-23T06:38:44.264Z,8.92
2023-01-23T06:41:10.554Z,8.92
2023-01-23T06:43:36.848Z,8.91
2023-01-23T06:46:03.209Z,8.89
2023-01-23T06:48:29.674Z,8.90
2023-01-23T06:50:59.532Z,8.88
2023-01-23T06:53:25.863Z,8.87
2023-01-23T06:55:52.159Z,8.87
2023-01-23T06:58:18.646Z,8.87
2023-01-23T07:00:45.434Z,8.85
2023-01-23T07:03:12.147Z,8.87
2023-01-23T07:05:40.375Z,8.87
2023-01-23T07:08:07.184Z,8.89
2023-01-23T07:10:33.713Z,8.90
2023-01-23T07:12:59.948Z,8.91
2023-01-23T07:15:26.217Z,8.95
2023-01-23T07:17:52.949Z,8.98
2023-01-23T07:20:19.715Z,8.98
2023-01-23T07:22:46.117Z,8.97
2023-01-23T07:25:12.391Z,8.97
2023-01-23T07:27:38.682Z,8.97
2023-01-23T07:30:05.994Z,8.97
2023-01-23T07:32:32.411Z,8.96
2023-01-23T07:34:58.920Z,8.97
2023-01-23T07:37:25.165Z,8.96
2023-01-23T07:39:54.021Z,8.96
2023-01-23T07:42:20.294Z,8.95
2023-01-23T07:44:46.749Z,8.95
2023-01-23T07:47:13.025Z,8.93
2023-01-23T07:49:39.448Z,8.92
2023-01-23T07:52:05.751Z,8.93
2023-01-23T07:54:32.440Z,8.94
2023-01-23T07:56:58.672Z,8.94
2023-01-23T07:59:24.923Z,8.93
2023-01-23T08:01:52.457Z,8.94
2023-01-23T08:04:19.501Z,8.96
2023-01-23T08:06:45.867Z,8.96
2023-01-23T08:09:12.826Z,8.98
2023-01-23T08:11:39.526Z,9.00
2023-01-23T08:14:05.870Z,9.02
2023-01-23T08:16:32.482Z,9.06
2023-01-23T08:18:58.898Z,9.07
2023-01-23T08:21:25.259Z,9.10
2023-01-23T08:23:51.620Z,9.11
2023-01-23T08:26:17.906Z,9.12
2023-01-23T08:28:45.401Z,9.15
2023-01-23T08:31:12.630Z,9.17
2023-01-23T08:33:39.485Z,9.19
2023-01-23T08:36:06.325Z,9.21
2023-01-23T08:38:33.276Z,9.21
2023-01-23T08:41:00.504Z,9.21
2023-01-23T08:43:27.052Z,9.22
2023-01-23T08:45:54.927Z,9.24
2023-01-23T08:48:22.392Z,9.24
2023-01-23T08:50:49.299Z,9.25
2023-01-23T08:53:15.816Z,9.26
2023-01-23T08:55:42.367Z,9.28
2023-01-23T08:58:09.553Z,9.28
2023-01-23T09:00:36.218Z,9.27
2023-01-23T09:03:03.418Z,9.28
2023-01-23T09:05:30.347Z,9.29
2023-01-23T09:07:59.797Z,9.30
2023-01-23T09:10:26.306Z,9.31
2023-01-23T09:12:53.535Z,9.32
2023-01-23T09:15:20.044Z,9.35
2023-01-23T09:17:46.275Z,9.38
2023-01-23T09:20:12.899Z,9.40
2023-01-23T09:22:42.177Z,9.41
2023-01-23T09:25:08.710Z,9.43
2023-01-23T09:27:35.119Z,9.43
2023-01-23T09:30:01.588Z,9.47
2023-01-23T09:32:27.831Z,9.50
2023-01-23T09:34:54.814Z,9.53
2023-01-23T09:37:21.129Z,9.58
2023-01-23T09:39:47.367Z,9.63
2023-01-23T09:42:16.756Z,9.66
2023-01-23T09:44:47.169Z,9.71
2023-01-23T09:47:17.420Z,9.74
2023-01-23T09:49:58.112Z,9.78
2023-01-23T09:52:26.449Z,9.81
2023-01-23T09:55:00.194Z,9.83
2023-01-23T09:57:29.838Z,9.87
2023-01-23T10:00:01.086Z,9.91
2023-01-23T10:02:27.844Z,9.92
2023-01-23T10:04:55.134Z,9.97
2023-01-23T10:07:21.402Z,9.99
2023-01-23T10:10:07.125Z,10.03
2023-01-23T10:12:40.399Z,10.05
2023-01-23T10:15:18.130Z,10.10
2023-01-23T10:17:51.956Z,10.12
2023-01-23T10:20:33.592Z,10.12
2023-01-23T10:23:10.715Z,10.14
2023-01-23T10:25:38.251Z,10.11
2023-01-23T10:28:17.001Z,10.15
2023-01-23T10:30:47.076Z,10.14
2023-01-23T10:33:14.895Z,10.12
2023-01-23T10:35:50.756Z,10.11
2023-01-23T10:38:26.414Z,10.12
2023-01-23T10:41:11.578Z,10.14
2023-01-23T10:43:37.946Z,10.12
2023-01-23T10:46:30.723Z,10.12
2023-01-23T10:48:59.269Z,10.10
2023-01-23T10:51:43.820Z,10.08
2023-01-23T10:54:31.240Z,10.07
2023-01-23T10:56:58.445Z,10.04
2023-01-23T10:59:24.654Z,10.07
2023-01-23T11:01:57.634Z,10.04
2023-01-23T11:04:25.571Z,10.05
2023-01-23T11:07:01.123Z,10.05
2023-01-23T11:09:27.674Z,10.07
2023-01-23T11:12:06.710Z,10.08
2023-01-23T11:14:33.419Z,10.07
2023-01-23T11:17:11.972Z,10.09
2023-01-23T11:19:38.210Z,10.10
2023-01-23T11:22:05.660Z,10.11
2023-01-23T11:24:40.459Z,10.11
2023-01-23T11:27:28.707Z,10.11
2023-01-23T11:30:16.564Z,10.10
2023-01-23T11:32:58.227Z,10.07
2023-01-23T11:35:44.793Z,10.04
2023-01-23T11:38:12.639Z,10.06
2023-01-23T11:40:39.556Z,10.09
2023-01-23T11:43:12.796Z,10.09
2023-01-23T11:45:43.532Z,10.11
2023-01-23T11:48:24.979Z,10.16
2023-01-23T11:50:56.400Z,10.20
2023-01-23T11:53:42.260Z,10.22
2023-01-23T11:56:12.330Z,10.26
2023-01-23T11:58:49.062Z,10.28
2023-01-23T12:01:29.000Z,10.29
2023-01-23T12:03:58.308Z,10.30
2023-01-23T12:06:48.247Z,10.29
2023-01-23T12:09:18.472Z,10.31
2023-01-23T12:12:03.939Z,10.29
2023-01-23T12:14:30.283Z,10.29
2023-01-23T12:17:01.924Z,10.32
2023-01-23T12:19:46.960Z,10.31
2023-01-23T12:22:27.077Z,10.34
2023-01-23T12:25:01.351Z,10.36
2023-01-23T12:27:34.320Z,10.38
2023-01-23T12:30:11.856Z,10.40
2023-01-23T12:32:51.492Z,10.43
2023-01-23T12:35:38.012Z,10.46
2023-01-23T12:38:17.409Z,10.47
2023-01-23T12:40:48.601Z,10.48
2023-01-23T12:43:31.501Z,10.48
2023-01-23T12:46:03.446Z,10.46
2023-01-23T12:48:33.011Z,10.44
2023-01-23T12:51:06.328Z,10.42
2023-01-23T12:53:37.374Z,10.41
2023-01-23T12:56:15.867Z,10.40
2023-01-23T12:58:53.830Z,10.39
2023-01-23T13:01:31.544Z,10.39
2023-01-23T13:04:04.289Z,10.39
2023-01-23T13:06:34.733Z,10.37
2023-01-23T13:09:17.794Z,10.38
2023-01-23T13:12:02.952Z,10.37
2023-01-23T13:14:47.540Z,10.37
2023-01-23T13:17:38.297Z,10.38
2023-01-23T13:20:41.792Z,10.37
2023-01-23T13:23:27.073Z,10.37
2023-01-23T13:26:30.162Z,10.37
2023-01-23T13:28:57.761Z,10.37
2023-01-23T13:31:46.261Z,10.39
2023-01-23T13:34:16.490Z,10.38
2023-01-23T13:36:47.709Z,10.38
2023-01-23T13:39:17.156Z,10.39
2023-01-23T13:41:44.528Z,10.40
2023-01-23T13:44:21.421Z,10.39
2023-01-23T14:21:41.025Z,10.35
2023-01-23T14:24:20.162Z,10.33
2023-01-23T14:26:50.533Z,10.33
2023-01-23T14:29:21.375Z,10.29
2023-01-23T14:31:47.989Z,10.29
2023-01-23T14:34:18.652Z,10.29
2023-01-23T14:36:53.639Z,10.29
2023-01-23T14:39:22.520Z,10.31
2023-01-23T14:41:49.870Z,10.31
2023-01-23T14:44:24.344Z,10.31
2023-01-23T14:46:54.850Z,10.31
2023-01-23T14:49:25.005Z,10.31
2023-01-23T14:51:59.961Z,10.31
2023-01-23T14:54:32.584Z,10.31
2023-01-23T14:57:00.920Z,10.29
2023-01-23T14:59:29.965Z,10.31
2023-01-23T15:01:57.243Z,10.30
2023-01-23T15:04:24.533Z,10.29
2023-01-23T15:06:55.897Z,10.28
2023-01-23T15:09:29.351Z,10.29
2023-01-23T15:11:56.949Z,10.29
2023-01-23T15:14:25.443Z,10.32
2023-01-23T15:16:58.867Z,10.33
2023-01-23T15:19:25.758Z,10.33
2023-01-23T15:22:04.439Z,10.33
2023-01-23T15:24:30.677Z,10.33
2023-01-23T15:26:58.584Z,10.31
2023-01-23T15:29:26.075Z,10.31
2023-01-23T15:31:53.551Z,10.30
2023-01-23T15:34:22.836Z,10.30
2023-01-23T15:36:49.159Z,10.29
2023-01-23T15:39:18.326Z,10.31
2023-01-23T15:41:47.505Z,10.31
2023-01-23T15:44:15.194Z,10.30
2023-01-23T15:46:41.727Z,10.29
2023-01-23T15:49:16.443Z,10.29
2023-01-23T15:51:50.504Z,10.27
2023-01-23T15:54:20.440Z,10.26
2023-01-23T15:56:48.803Z,10.27
2023-01-23T15:59:18.207Z,10.26
2023-01-23T16:01:44.567Z,10.25
2023-01-23T16:04:10.865Z,10.25
2023-01-23T16:06:38.084Z,10.24
2023-01-23T16:09:05.960Z,10.24
2023-01-23T16:11:34.097Z,10.23
2023-01-23T16:14:01.097Z,10.22
2023-01-23T16:16:27.502Z,10.21
2023-01-23T16:18:53.755Z,10.18
2023-01-23T16:21:21.216Z,10.17
2023-01-23T16:23:48.077Z,10.14
2023-01-23T16:26:20.171Z,10.14
2023-01-23T16:28:46.499Z,10.12
2023-01-23T16:31:13.702Z,10.10
2023-01-23T16:33:40.327Z,10.08
2023-01-23T16:36:06.983Z,10.05
2023-01-23T16:38:33.703Z,10.05
2023-01-23T16:41:01.400Z,10.04
2023-01-23T16:43:28.144Z,10.03
2023-01-23T16:45:56.511Z,10.01
2023-01-23T16:48:27.893Z,10.01
2023-01-23T16:51:00.727Z,10.03
2023-01-23T16:53:32.925Z,10.03
2023-01-23T16:56:01.985Z,10.04
2023-01-23T16:58:29.695Z,10.03
2023-01-23T17:01:01.471Z,10.04
2023-01-23T17:03:29.654Z,10.03
2023-01-23T17:05:56.373Z,10.03
2023-01-23T17:08:24.138Z,10.02
2023-01-23T17:10:52.930Z,10.01
2023-01-23T17:13:20.863Z,10.01
2023-01-23T17:15:48.129Z,10.01
2023-01-23T17:18:22.608Z,10.00
2023-01-23T17:20:49.121Z,10.00
2023-01-23T17:23:18.036Z,10.00
2023-01-23T17:25:59.780Z,9.98
2023-01-23T17:28:26.621Z,9.95
2023-01-23T17:30:54.280Z,9.95
2023-01-23T17:33:22.461Z,9.95
2023-01-23T17:35:49.502Z,9.94
2023-01-23T17:38:17.863Z,9.93
2023-01-23T17:40:45.092Z,9.91
2023-01-23T17:43:12.505Z,9.92
2023-01-23T17:45:39.573Z,9.89
2023-01-23T17:48:08.852Z,9.89
2023-01-23T17:50:35.699Z,9.88
2023-01-23T17:53:01.956Z,9.89
2023-01-23T17:55:32.781Z,9.87
2023-01-23T17:57:59.106Z,9.87
2023-01-23T18:00:27.274Z,9.85
2023-01-23T18:02:57.630Z,9.86
2023-01-23T18:05:24.391Z,9.86
2023-01-23T18:07:54.014Z,9.85
2023-01-23T18:10:22.242Z,9.83
2023-01-23T18:13:00.277Z,9.82
2023-01-23T18:15:45.612Z,9.82
2023-01-23T18:18:32.206Z,9.81
2023-01-23T18:20:59.413Z,9.81
2023-01-23T18:23:26.881Z,9.78
2023-01-23T18:26:01.597Z,9.80
2023-01-23T18:28:31.619Z,9.79
2023-01-23T18:31:07.416Z,9.77
2023-01-23T18:33:36.602Z,9.79
2023-01-23T18:36:07.032Z,9.79
2023-01-23T18:38:33.876Z,9.78
2023-01-23T18:41:00.167Z,9.78
2023-01-23T18:43:39.739Z,9.79
2023-01-23T18:46:11.791Z,9.81
2023-01-23T18:48:40.472Z,9.82
2023-01-23T18:51:21.552Z,9.83
2023-01-23T18:53:50.815Z,9.84
2023-01-23T18:56:22.187Z,9.83
2023-01-23T18:58:55.723Z,9.84
2023-01-23T19:01:41.588Z,9.84
2023-01-23T19:04:13.554Z,9.83
2023-01-23T19:06:41.139Z,9.84
2023-01-23T19:09:15.885Z,9.82
2023-01-23T19:11:50.550Z,9.81
2023-01-23T19:14:23.323Z,9.80
2023-01-23T19:16:56.938Z,9.79
2023-01-23T19:19:37.855Z,9.79
2023-01-23T19:22:09.015Z,9.79
2023-01-23T19:24:35.400Z,9.79
2023-01-23T19:27:01.724Z,9.78
2023-01-23T19:29:28.222Z,9.79
2023-01-23T19:32:04.591Z,9.76
2023-01-23T19:34:31.782Z,9.78
2023-01-23T19:36:58.207Z,9.79
2023-01-23T19:39:24.625Z,9.79
2023-01-23T19:41:51.878Z,9.76
2023-01-23T19:44:19.530Z,9.78
2023-01-23T19:46:46.143Z,9.78
2023-01-23T19:49:13.595Z,9.78
2023-01-23T19:51:40.231Z,9.81
2023-01-23T19:54:09.774Z,9.81
2023-01-23T19:56:36.150Z,9.81
2023-01-23T19:59:02.775Z,9.83
2023-01-23T20:01:40.400Z,9.84
2023-01-23T20:04:15.783Z,9.84
2023-01-23T20:06:42.959Z,9.84
2023-01-23T20:09:10.951Z,9.85
2023-01-23T20:11:37.383Z,9.82
2023-01-23T20:14:03.951Z,9.82
2023-01-23T20:16:30.447Z,9.81
2023-01-23T20:18:56.959Z,9.82
2023-01-23T20:21:25.400Z,9.81
2023-01-23T20:23:52.178Z,9.81
2023-01-23T20:26:19.853Z,9.83
2023-01-23T20:28:46.983Z,9.82
2023-01-23T20:31:13.863Z,9.81
2023-01-23T20:33:40.731Z,9.79
2023-01-23T20:36:07.999Z,9.78
2023-01-23T20:38:34.681Z,9.77
2023-01-23T20:41:11.146Z,9.74
2023-01-23T20:43:39.023Z,9.74
2023-01-23T20:46:06.499Z,9.73
2023-01-23T20:48:33.937Z,9.70
2023-01-23T20:51:00.397Z,9.70
2023-01-23T20:53:34.752Z,9.69
2023-01-23T20:56:11.675Z,9.67
2023-01-23T20:58:58.084Z,9.68
2023-01-23T21:01:26.280Z,9.68
2023-01-23T21:03:52.795Z,9.67
2023-01-23T21:06:19.314Z,9.67
2023-01-23T21:08:46.104Z,9.68
2023-01-23T21:11:19.606Z,9.68
2023-01-23T21:13:50.294Z,9.70
2023-01-23T21:16:16.890Z,9.69
2023-01-23T21:18:46.050Z,9.69
2023-01-23T21:21:16.918Z,9.69
2023-01-23T21:23:45.593Z,9.68
2023-01-23T21:26:12.320Z,9.69
2023-01-23T21:28:39.098Z,9.68
2023-01-23T21:31:19.162Z,9.66
2023-01-23T21:33:46.828Z,9.67
2023-01-23T21:36:14.948Z,9.68
2023-01-23T21:38:41.549Z,9.68
2023-01-23T21:41:10.248Z,9.67
2023-01-23T21:43:36.580Z,9.67
2023-01-23T21:46:03.222Z,9.67
2023-01-23T21:48:30.430Z,9.67
2023-01-23T21:51:07.085Z,9.66
2023-01-23T21:53:33.496Z,9.64
2023-01-23T21:55:59.836Z,9.61
2023-01-23T21:58:26.325Z,9.62
2023-01-23T22:01:14.861Z,9.63
2023-01-23T22:03:41.165Z,9.62
2023-01-23T22:06:07.689Z,9.62
2023-01-23T22:08:34.419Z,9.62
2023-01-23T22:11:00.901Z,9.62
2023-01-23T22:13:27.229Z,9.61
2023-01-23T22:15:56.054Z,9.63
2023-01-23T22:18:22.553Z,9.62
2023-01-23T22:20:53.061Z,9.61
2023-01-23T22:23:19.532Z,9.60
2023-01-23T22:25:47.149Z,9.59
2023-01-23T22:28:13.456Z,9.59
2023-01-23T22:33:14.492Z,9.57
2023-01-23T22:35:41.374Z,9.58
2023-01-23T22:38:08.799Z,9.59
2023-01-23T22:40:35.751Z,9.57
2023-01-23T22:43:02.646Z,9.57
2023-01-23T22:45:28.928Z,9.57
2023-01-23T22:47:55.174Z,9.57
2023-01-23T22:50:21.443Z,9.57
2023-01-23T22:52:47.771Z,9.56
2023-01-23T22:55:14.236Z,9.56
2023-01-23T22:57:40.500Z,9.52
2023-01-23T23:00:09.242Z,9.52
2023-01-23T23:02:35.672Z,9.51
2023-01-23T23:05:01.911Z,9.51
2023-01-23T23:07:28.124Z,9.49
2023-01-23T23:09:54.539Z,9.48
2023-01-23T23:12:20.811Z,9.48
2023-01-23T23:14:47.235Z,9.46
2023-01-23T23:17:13.463Z,9.46
2023-01-23T23:19:39.878Z,9.45
2023-01-23T23:22:06.339Z,9.45
2023-01-23T23:24:32.760Z,9.44
2023-01-23T23:26:59.374Z,9.46
2023-01-23T23:29:25.810Z,9.44
2023-01-23T23:31:52.255Z,9.46
2023-01-23T23:34:19.082Z,9.47
2023-01-23T23:36:45.388Z,9.45
2023-01-23T23:39:11.712Z,9.45
2023-01-23T23:41:37.958Z,9.46
2023-01-23T23:44:04.512Z,9.46
2023-01-23T23:46:31.103Z,9.46
2023-01-23T23:48:57.459Z,9.46
2023-01-23T23:51:26.384Z,9.43
2023-01-23T23:53:52.945Z,9.45
2023-01-23T23:56:21.528Z,9.45
2023-01-23T23:58:48.026Z,9.42
